sensor_id;sensor_type;location;lat;lon;timestamp;P1;durP1;ratioP1;P2;durP2;ratioP2
29984;SDS011;17387;42.690;23.328;2023-07-29T00:00:13;5.22;;;3.65;;
29984;SDS011;17387;42.690;23.328;2023-07-29T00:02:38;5.55;;;3.70;;
29984;SDS011;17387;42.690;23.328;2023-07-29T00:05:04;6.33;;;3.70;;
29984;SDS011;17387;42.690;23.328;2023-07-29T00:07:29;11.10;;;3.17;;
29984;SDS011;17387;42.690;23.328;2023-07-29T00:09:54;8.93;;;3.87;;
29984;SDS011;17387;42.690;23.328;2023-07-29T00:12:19;4.95;;;3.13;;
29984;SDS011;17387;42.690;23.328;2023-07-29T00:14:45;3.78;;;3.20;;
29984;SDS011;17387;42.690;23.328;2023-07-29T00:17:10;4.68;;;3.30;;
29984;SDS011;17387;42.690;23.328;2023-07-29T00:19:35;4.00;;;3.20;;
29984;SDS011;17387;42.690;23.328;2023-07-29T00:22:01;5.53;;;3.45;;
29984;SDS011;17387;42.690;23.328;2023-07-29T00:24:26;3.90;;;3.03;;
29984;SDS011;17387;42.690;23.328;2023-07-29T00:26:51;6.20;;;3.10;;
29984;SDS011;17387;42.690;23.328;2023-07-29T00:29:16;3.70;;;3.00;;
29984;SDS011;17387;42.690;23.328;2023-07-29T00:31:41;5.15;;;3.53;;
29984;SDS011;17387;42.690;23.328;2023-07-29T00:34:07;5.07;;;3.37;;
29984;SDS011;17387;42.690;23.328;2023-07-29T00:36:32;5.13;;;3.67;;
29984;SDS011;17387;42.690;23.328;2023-07-29T00:38:57;5.10;;;3.87;;
29984;SDS011;17387;42.690;23.328;2023-07-29T00:41:22;4.13;;;3.60;;
29984;SDS011;17387;42.690;23.328;2023-07-29T00:43:48;5.50;;;4.47;;
29984;SDS011;17387;42.690;23.328;2023-07-29T00:46:13;8.23;;;3.90;;
29984;SDS011;17387;42.690;23.328;2023-07-29T00:48:39;5.30;;;3.50;;
29984;SDS011;17387;42.690;23.328;2023-07-29T00:51:04;6.93;;;3.53;;
29984;SDS011;17387;42.690;23.328;2023-07-29T00:53:30;4.40;;;3.55;;
29984;SDS011;17387;42.690;23.328;2023-07-29T00:55:56;4.93;;;3.70;;
29984;SDS011;17387;42.690;23.328;2023-07-29T00:58:21;5.18;;;3.63;;
29984;SDS011;17387;42.690;23.328;2023-07-29T01:00:46;6.40;;;3.60;;
29984;SDS011;17387;42.690;23.328;2023-07-29T01:03:12;8.00;;;4.60;;
29984;SDS011;17387;42.690;23.328;2023-07-29T01:05:44;9.82;;;4.60;;
29984;SDS011;17387;42.690;23.328;2023-07-29T01:08:16;5.72;;;4.13;;
29984;SDS011;17387;42.690;23.328;2023-07-29T01:10:47;4.30;;;3.50;;
29984;SDS011;17387;42.690;23.328;2023-07-29T01:16:02;6.28;;;4.00;;
29984;SDS011;17387;42.690;23.328;2023-07-29T01:18:30;4.05;;;3.65;;
29984;SDS011;17387;42.690;23.328;2023-07-29T01:20:59;5.18;;;3.67;;
29984;SDS011;17387;42.690;23.328;2023-07-29T01:23:25;5.32;;;4.13;;
29984;SDS011;17387;42.690;23.328;2023-07-29T01:25:51;7.95;;;3.83;;
29984;SDS011;17387;42.690;23.328;2023-07-29T01:28:16;4.47;;;3.30;;
29984;SDS011;17387;42.690;23.328;2023-07-29T01:30:41;5.72;;;3.45;;
29984;SDS011;17387;42.690;23.328;2023-07-29T01:33:14;5.05;;;3.70;;
29984;SDS011;17387;42.690;23.328;2023-07-29T01:35:42;5.97;;;3.78;;
29984;SDS011;17387;42.690;23.328;2023-07-29T01:38:14;5.50;;;3.88;;
29984;SDS011;17387;42.690;23.328;2023-07-29T01:40:41;8.65;;;4.07;;
29984;SDS011;17387;42.690;23.328;2023-07-29T01:43:07;6.65;;;4.10;;
29984;SDS011;17387;42.690;23.328;2023-07-29T01:45:33;6.43;;;3.90;;
29984;SDS011;17387;42.690;23.328;2023-07-29T01:48:02;5.95;;;3.67;;
29984;SDS011;17387;42.690;23.328;2023-07-29T01:50:28;4.90;;;4.00;;
29984;SDS011;17387;42.690;23.328;2023-07-29T01:52:53;5.40;;;3.77;;
29984;SDS011;17387;42.690;23.328;2023-07-29T01:55:18;7.77;;;4.00;;
29984;SDS011;17387;42.690;23.328;2023-07-29T01:57:43;6.35;;;4.05;;
29984;SDS011;17387;42.690;23.328;2023-07-29T02:00:10;7.28;;;4.22;;
29984;SDS011;17387;42.690;23.328;2023-07-29T02:02:35;5.35;;;3.63;;
29984;SDS011;17387;42.690;23.328;2023-07-29T02:05:00;7.10;;;4.60;;
29984;SDS011;17387;42.690;23.328;2023-07-29T02:07:25;6.35;;;3.75;;
29984;SDS011;17387;42.690;23.328;2023-07-29T02:09:51;6.05;;;4.50;;
29984;SDS011;17387;42.690;23.328;2023-07-29T02:12:17;5.15;;;4.00;;
29984;SDS011;17387;42.690;23.328;2023-07-29T02:14:42;11.82;;;4.22;;
29984;SDS011;17387;42.690;23.328;2023-07-29T02:17:07;8.68;;;3.90;;
29984;SDS011;17387;42.690;23.328;2023-07-29T02:19:33;4.80;;;4.00;;
29984;SDS011;17387;42.690;23.328;2023-07-29T02:21:59;5.43;;;3.92;;
29984;SDS011;17387;42.690;23.328;2023-07-29T02:24:24;6.33;;;3.97;;
29984;SDS011;17387;42.690;23.328;2023-07-29T02:26:49;5.10;;;3.83;;
29984;SDS011;17387;42.690;23.328;2023-07-29T02:29:15;7.72;;;4.55;;
29984;SDS011;17387;42.690;23.328;2023-07-29T02:31:40;11.03;;;4.07;;
29984;SDS011;17387;42.690;23.328;2023-07-29T02:34:05;4.50;;;4.10;;
29984;SDS011;17387;42.690;23.328;2023-07-29T02:36:31;5.55;;;4.18;;
29984;SDS011;17387;42.690;23.328;2023-07-29T02:38:56;6.53;;;4.50;;
29984;SDS011;17387;42.690;23.328;2023-07-29T02:41:21;6.70;;;4.17;;
29984;SDS011;17387;42.690;23.328;2023-07-29T02:43:50;6.88;;;4.40;;
29984;SDS011;17387;42.690;23.328;2023-07-29T02:46:15;5.97;;;4.10;;
29984;SDS011;17387;42.690;23.328;2023-07-29T02:48:41;7.45;;;4.22;;
29984;SDS011;17387;42.690;23.328;2023-07-29T02:51:06;5.47;;;4.53;;
29984;SDS011;17387;42.690;23.328;2023-07-29T02:53:32;6.27;;;4.30;;
29984;SDS011;17387;42.690;23.328;2023-07-29T02:55:57;5.53;;;4.00;;
29984;SDS011;17387;42.690;23.328;2023-07-29T02:58:22;5.47;;;4.40;;
29984;SDS011;17387;42.690;23.328;2023-07-29T03:00:47;7.15;;;4.25;;
29984;SDS011;17387;42.690;23.328;2023-07-29T03:03:13;5.38;;;4.10;;
29984;SDS011;17387;42.690;23.328;2023-07-29T03:05:39;4.85;;;4.20;;
29984;SDS011;17387;42.690;23.328;2023-07-29T03:08:04;5.95;;;4.28;;
29984;SDS011;17387;42.690;23.328;2023-07-29T03:10:29;4.28;;;3.88;;
29984;SDS011;17387;42.690;23.328;2023-07-29T03:12:55;5.53;;;4.10;;
29984;SDS011;17387;42.690;23.328;2023-07-29T03:15:23;7.38;;;4.60;;
29984;SDS011;17387;42.690;23.328;2023-07-29T03:17:50;7.53;;;4.65;;
29984;SDS011;17387;42.690;23.328;2023-07-29T03:20:15;6.18;;;4.40;;
29984;SDS011;17387;42.690;23.328;2023-07-29T03:22:42;7.32;;;4.78;;
29984;SDS011;17387;42.690;23.328;2023-07-29T03:25:10;6.63;;;5.20;;
29984;SDS011;17387;42.690;23.328;2023-07-29T03:27:36;6.88;;;4.85;;
29984;SDS011;17387;42.690;23.328;2023-07-29T03:30:05;5.38;;;4.65;;
29984;SDS011;17387;42.690;23.328;2023-07-29T03:32:30;7.13;;;4.53;;
29984;SDS011;17387;42.690;23.328;2023-07-29T03:34:55;8.30;;;4.70;;
29984;SDS011;17387;42.690;23.328;2023-07-29T03:37:30;6.13;;;4.70;;
29984;SDS011;17387;42.690;23.328;2023-07-29T03:40:01;6.93;;;4.75;;
29984;SDS011;17387;42.690;23.328;2023-07-29T03:42:28;8.95;;;4.95;;
29984;SDS011;17387;42.690;23.328;2023-07-29T03:44:53;7.43;;;4.20;;
29984;SDS011;17387;42.690;23.328;2023-07-29T03:47:18;6.17;;;4.50;;
29984;SDS011;17387;42.690;23.328;2023-07-29T03:49:43;7.28;;;4.30;;
29984;SDS011;17387;42.690;23.328;2023-07-29T03:52:09;6.47;;;4.32;;
29984;SDS011;17387;42.690;23.328;2023-07-29T03:54:35;6.03;;;4.55;;
29984;SDS011;17387;42.690;23.328;2023-07-29T03:57:00;6.30;;;4.47;;
29984;SDS011;17387;42.690;23.328;2023-07-29T03:59:25;8.88;;;4.68;;
29984;SDS011;17387;42.690;23.328;2023-07-29T04:01:50;15.05;;;4.78;;
29984;SDS011;17387;42.690;23.328;2023-07-29T04:04:16;5.38;;;4.55;;
29984;SDS011;17387;42.690;23.328;2023-07-29T04:06:41;7.95;;;4.90;;
29984;SDS011;17387;42.690;23.328;2023-07-29T04:09:06;5.75;;;4.28;;
29984;SDS011;17387;42.690;23.328;2023-07-29T04:11:33;9.68;;;4.60;;
29984;SDS011;17387;42.690;23.328;2023-07-29T04:14:01;5.00;;;4.38;;
29984;SDS011;17387;42.690;23.328;2023-07-29T04:16:26;7.40;;;4.72;;
29984;SDS011;17387;42.690;23.328;2023-07-29T04:18:51;5.93;;;4.30;;
29984;SDS011;17387;42.690;23.328;2023-07-29T04:21:17;12.65;;;4.57;;
29984;SDS011;17387;42.690;23.328;2023-07-29T04:23:42;12.52;;;6.18;;
29984;SDS011;17387;42.690;23.328;2023-07-29T04:26:07;7.53;;;4.80;;
29984;SDS011;17387;42.690;23.328;2023-07-29T04:28:32;7.53;;;4.80;;
29984;SDS011;17387;42.690;23.328;2023-07-29T04:30:57;8.27;;;5.30;;
29984;SDS011;17387;42.690;23.328;2023-07-29T04:33:23;6.03;;;4.90;;
29984;SDS011;17387;42.690;23.328;2023-07-29T04:35:48;9.03;;;5.03;;
29984;SDS011;17387;42.690;23.328;2023-07-29T04:38:13;7.77;;;4.90;;
29984;SDS011;17387;42.690;23.328;2023-07-29T04:40:38;6.63;;;4.78;;
29984;SDS011;17387;42.690;23.328;2023-07-29T04:43:04;7.80;;;4.33;;
29984;SDS011;17387;42.690;23.328;2023-07-29T04:45:29;6.70;;;5.30;;
29984;SDS011;17387;42.690;23.328;2023-07-29T04:47:55;8.00;;;5.15;;
29984;SDS011;17387;42.690;23.328;2023-07-29T04:50:20;9.95;;;5.70;;
29984;SDS011;17387;42.690;23.328;2023-07-29T04:52:45;6.60;;;5.05;;
29984;SDS011;17387;42.690;23.328;2023-07-29T04:55:10;7.67;;;4.97;;
29984;SDS011;17387;42.690;23.328;2023-07-29T04:57:36;8.17;;;5.07;;
29984;SDS011;17387;42.690;23.328;2023-07-29T05:00:02;9.10;;;5.13;;
29984;SDS011;17387;42.690;23.328;2023-07-29T05:02:27;8.98;;;6.00;;
29984;SDS011;17387;42.690;23.328;2023-07-29T05:04:53;8.30;;;5.47;;
29984;SDS011;17387;42.690;23.328;2023-07-29T05:07:18;7.40;;;5.32;;
29984;SDS011;17387;42.690;23.328;2023-07-29T05:09:43;7.20;;;4.90;;
29984;SDS011;17387;42.690;23.328;2023-07-29T05:12:09;8.38;;;5.10;;
29984;SDS011;17387;42.690;23.328;2023-07-29T05:14:34;6.40;;;5.20;;
29984;SDS011;17387;42.690;23.328;2023-07-29T05:16:59;6.47;;;4.80;;
29984;SDS011;17387;42.690;23.328;2023-07-29T05:19:25;8.10;;;4.68;;
29984;SDS011;17387;42.690;23.328;2023-07-29T05:21:51;5.90;;;4.70;;
29984;SDS011;17387;42.690;23.328;2023-07-29T05:24:16;4.87;;;4.33;;
29984;SDS011;17387;42.690;23.328;2023-07-29T05:26:41;6.23;;;4.53;;
29984;SDS011;17387;42.690;23.328;2023-07-29T05:29:06;4.97;;;4.47;;
29984;SDS011;17387;42.690;23.328;2023-07-29T05:31:32;5.63;;;4.67;;
29984;SDS011;17387;42.690;23.328;2023-07-29T05:33:57;6.83;;;5.00;;
29984;SDS011;17387;42.690;23.328;2023-07-29T05:36:22;6.18;;;5.10;;
29984;SDS011;17387;42.690;23.328;2023-07-29T05:38:48;7.50;;;5.30;;
29984;SDS011;17387;42.690;23.328;2023-07-29T05:41:13;5.95;;;5.05;;
29984;SDS011;17387;42.690;23.328;2023-07-29T05:43:38;5.33;;;4.80;;
29984;SDS011;17387;42.690;23.328;2023-07-29T05:46:03;7.72;;;5.15;;
29984;SDS011;17387;42.690;23.328;2023-07-29T05:48:29;9.25;;;5.00;;
29984;SDS011;17387;42.690;23.328;2023-07-29T05:50:54;7.07;;;4.93;;
29984;SDS011;17387;42.690;23.328;2023-07-29T05:53:19;9.03;;;5.23;;
29984;SDS011;17387;42.690;23.328;2023-07-29T05:55:44;7.07;;;5.35;;
29984;SDS011;17387;42.690;23.328;2023-07-29T05:58:10;7.93;;;4.97;;
29984;SDS011;17387;42.690;23.328;2023-07-29T06:00:36;7.45;;;4.55;;
29984;SDS011;17387;42.690;23.328;2023-07-29T06:03:01;6.47;;;4.50;;
29984;SDS011;17387;42.690;23.328;2023-07-29T06:05:26;8.25;;;4.57;;
29984;SDS011;17387;42.690;23.328;2023-07-29T06:07:51;8.35;;;4.60;;
29984;SDS011;17387;42.690;23.328;2023-07-29T06:10:17;10.00;;;4.90;;
29984;SDS011;17387;42.690;23.328;2023-07-29T06:12:45;6.28;;;4.57;;
29984;SDS011;17387;42.690;23.328;2023-07-29T06:15:10;5.43;;;4.38;;
29984;SDS011;17387;42.690;23.328;2023-07-29T06:17:36;6.45;;;4.50;;
29984;SDS011;17387;42.690;23.328;2023-07-29T06:20:02;4.90;;;4.35;;
29984;SDS011;17387;42.690;23.328;2023-07-29T06:22:28;5.40;;;3.90;;
29984;SDS011;17387;42.690;23.328;2023-07-29T06:24:53;4.97;;;3.63;;
29984;SDS011;17387;42.690;23.328;2023-07-29T06:27:18;8.03;;;5.17;;
29984;SDS011;17387;42.690;23.328;2023-07-29T06:29:43;5.23;;;4.17;;
29984;SDS011;17387;42.690;23.328;2023-07-29T06:32:09;5.33;;;4.30;;
29984;SDS011;17387;42.690;23.328;2023-07-29T06:34:34;9.47;;;4.03;;
29984;SDS011;17387;42.690;23.328;2023-07-29T06:36:59;5.47;;;4.40;;
29984;SDS011;17387;42.690;23.328;2023-07-29T06:39:24;6.77;;;3.97;;
29984;SDS011;17387;42.690;23.328;2023-07-29T06:41:50;5.93;;;4.70;;
29984;SDS011;17387;42.690;23.328;2023-07-29T06:44:15;8.32;;;4.43;;
29984;SDS011;17387;42.690;23.328;2023-07-29T06:46:41;11.07;;;4.78;;
29984;SDS011;17387;42.690;23.328;2023-07-29T06:49:06;7.68;;;4.65;;
29984;SDS011;17387;42.690;23.328;2023-07-29T06:51:31;7.03;;;4.60;;
29984;SDS011;17387;42.690;23.328;2023-07-29T06:53:59;7.00;;;4.70;;
29984;SDS011;17387;42.690;23.328;2023-07-29T06:56:25;7.75;;;4.72;;
29984;SDS011;17387;42.690;23.328;2023-07-29T06:58:50;8.77;;;5.57;;
29984;SDS011;17387;42.690;23.328;2023-07-29T07:01:15;10.20;;;5.28;;
29984;SDS011;17387;42.690;23.328;2023-07-29T07:03:41;9.73;;;6.10;;
29984;SDS011;17387;42.690;23.328;2023-07-29T07:06:06;7.97;;;5.13;;
29984;SDS011;17387;42.690;23.328;2023-07-29T07:08:31;13.07;;;6.88;;
29984;SDS011;17387;42.690;23.328;2023-07-29T07:10:57;26.20;;;12.25;;
29984;SDS011;17387;42.690;23.328;2023-07-29T07:13:22;10.07;;;5.90;;
29984;SDS011;17387;42.690;23.328;2023-07-29T07:15:47;15.77;;;5.97;;
29984;SDS011;17387;42.690;23.328;2023-07-29T07:18:13;10.10;;;5.97;;
29984;SDS011;17387;42.690;23.328;2023-07-29T07:20:38;7.82;;;5.68;;
29984;SDS011;17387;42.690;23.328;2023-07-29T07:23:03;7.72;;;5.55;;
29984;SDS011;17387;42.690;23.328;2023-07-29T07:25:30;7.38;;;5.70;;
29984;SDS011;17387;42.690;23.328;2023-07-29T07:27:55;9.75;;;5.65;;
29984;SDS011;17387;42.690;23.328;2023-07-29T07:30:21;17.45;;;10.98;;
29984;SDS011;17387;42.690;23.328;2023-07-29T07:32:46;7.40;;;5.43;;
29984;SDS011;17387;42.690;23.328;2023-07-29T07:35:11;7.03;;;5.45;;
29984;SDS011;17387;42.690;23.328;2023-07-29T07:37:37;11.00;;;5.65;;
29984;SDS011;17387;42.690;23.328;2023-07-29T07:40:03;9.20;;;5.45;;
29984;SDS011;17387;42.690;23.328;2023-07-29T07:42:28;9.98;;;7.05;;
29984;SDS011;17387;42.690;23.328;2023-07-29T07:44:53;8.10;;;5.55;;
29984;SDS011;17387;42.690;23.328;2023-07-29T07:47:19;10.57;;;5.53;;
29984;SDS011;17387;42.690;23.328;2023-07-29T07:49:44;11.07;;;5.50;;
29984;SDS011;17387;42.690;23.328;2023-07-29T07:52:09;8.10;;;4.43;;
29984;SDS011;17387;42.690;23.328;2023-07-29T07:54:34;6.10;;;4.43;;
29984;SDS011;17387;42.690;23.328;2023-07-29T07:57:00;6.28;;;4.53;;
29984;SDS011;17387;42.690;23.328;2023-07-29T07:59:28;9.27;;;5.07;;
29984;SDS011;17387;42.690;23.328;2023-07-29T08:01:53;7.50;;;4.43;;
29984;SDS011;17387;42.690;23.328;2023-07-29T08:04:21;6.85;;;4.88;;
29984;SDS011;17387;42.690;23.328;2023-07-29T08:06:49;7.60;;;4.77;;
29984;SDS011;17387;42.690;23.328;2023-07-29T08:09:14;13.75;;;7.00;;
29984;SDS011;17387;42.690;23.328;2023-07-29T08:11:40;7.00;;;4.35;;
29984;SDS011;17387;42.690;23.328;2023-07-29T08:14:05;11.02;;;4.82;;
29984;SDS011;17387;42.690;23.328;2023-07-29T08:16:30;5.22;;;4.43;;
29984;SDS011;17387;42.690;23.328;2023-07-29T08:18:56;14.57;;;9.43;;
29984;SDS011;17387;42.690;23.328;2023-07-29T08:21:21;12.33;;;4.57;;
29984;SDS011;17387;42.690;23.328;2023-07-29T08:23:46;8.07;;;5.40;;
29984;SDS011;17387;42.690;23.328;2023-07-29T08:26:11;6.67;;;4.07;;
29984;SDS011;17387;42.690;23.328;2023-07-29T08:28:37;5.75;;;4.32;;
29984;SDS011;17387;42.690;23.328;2023-07-29T08:31:03;10.23;;;4.25;;
29984;SDS011;17387;42.690;23.328;2023-07-29T08:33:29;10.05;;;4.57;;
29984;SDS011;17387;42.690;23.328;2023-07-29T08:35:54;5.20;;;4.15;;
29984;SDS011;17387;42.690;23.328;2023-07-29T08:38:19;10.82;;;4.70;;
29984;SDS011;17387;42.690;23.328;2023-07-29T08:40:45;8.65;;;5.50;;
29984;SDS011;17387;42.690;23.328;2023-07-29T08:43:14;5.88;;;3.95;;
29984;SDS011;17387;42.690;23.328;2023-07-29T08:45:41;7.95;;;4.22;;
29984;SDS011;17387;42.690;23.328;2023-07-29T08:48:08;6.65;;;4.20;;
29984;SDS011;17387;42.690;23.328;2023-07-29T08:50:35;7.68;;;3.90;;
29984;SDS011;17387;42.690;23.328;2023-07-29T08:53:00;7.75;;;3.55;;
29984;SDS011;17387;42.690;23.328;2023-07-29T08:55:28;3.95;;;3.20;;
29984;SDS011;17387;42.690;23.328;2023-07-29T08:57:54;8.68;;;3.50;;
29984;SDS011;17387;42.690;23.328;2023-07-29T09:00:20;4.03;;;2.97;;
29984;SDS011;17387;42.690;23.328;2023-07-29T09:02:45;3.40;;;3.10;;
29984;SDS011;17387;42.690;23.328;2023-07-29T09:05:10;5.13;;;2.80;;
29984;SDS011;17387;42.690;23.328;2023-07-29T09:07:36;3.53;;;3.07;;
29984;SDS011;17387;42.690;23.328;2023-07-29T09:10:01;6.53;;;3.22;;
29984;SDS011;17387;42.690;23.328;2023-07-29T09:12:26;4.55;;;3.47;;
29984;SDS011;17387;42.690;23.328;2023-07-29T09:14:52;3.50;;;1.90;;
29984;SDS011;17387;42.690;23.328;2023-07-29T09:17:18;5.20;;;2.53;;
29984;SDS011;17387;42.690;23.328;2023-07-29T09:19:46;2.65;;;2.42;;
29984;SDS011;17387;42.690;23.328;2023-07-29T09:22:19;2.90;;;2.30;;
29984;SDS011;17387;42.690;23.328;2023-07-29T09:24:45;2.55;;;2.20;;
29984;SDS011;17387;42.690;23.328;2023-07-29T09:27:12;3.05;;;2.38;;
29984;SDS011;17387;42.690;23.328;2023-07-29T09:29:48;2.75;;;2.40;;
29984;SDS011;17387;42.690;23.328;2023-07-29T09:32:19;3.63;;;2.50;;
29984;SDS011;17387;42.690;23.328;2023-07-29T09:34:45;3.33;;;2.55;;
29984;SDS011;17387;42.690;23.328;2023-07-29T09:37:15;3.83;;;2.40;;
29984;SDS011;17387;42.690;23.328;2023-07-29T09:39:43;8.93;;;2.53;;
29984;SDS011;17387;42.690;23.328;2023-07-29T09:42:11;1.98;;;1.42;;
29984;SDS011;17387;42.690;23.328;2023-07-29T09:44:36;2.83;;;1.65;;
29984;SDS011;17387;42.690;23.328;2023-07-29T09:47:01;2.57;;;2.10;;
29984;SDS011;17387;42.690;23.328;2023-07-29T09:49:27;3.08;;;1.77;;
29984;SDS011;17387;42.690;23.328;2023-07-29T09:51:55;8.00;;;6.32;;
29984;SDS011;17387;42.690;23.328;2023-07-29T09:54:20;2.90;;;2.25;;
29984;SDS011;17387;42.690;23.328;2023-07-29T09:56:46;4.25;;;3.17;;
29984;SDS011;17387;42.690;23.328;2023-07-29T09:59:12;3.22;;;2.40;;
29984;SDS011;17387;42.690;23.328;2023-07-29T10:01:38;4.10;;;2.03;;
29984;SDS011;17387;42.690;23.328;2023-07-29T10:04:03;3.88;;;2.17;;
29984;SDS011;17387;42.690;23.328;2023-07-29T10:06:29;2.33;;;1.73;;
29984;SDS011;17387;42.690;23.328;2023-07-29T10:08:54;1.70;;;1.48;;
29984;SDS011;17387;42.690;23.328;2023-07-29T10:11:20;3.03;;;1.80;;
29984;SDS011;17387;42.690;23.328;2023-07-29T10:13:46;3.92;;;2.47;;
29984;SDS011;17387;42.690;23.328;2023-07-29T10:16:11;2.15;;;1.67;;
29984;SDS011;17387;42.690;23.328;2023-07-29T10:18:37;4.63;;;2.40;;
29984;SDS011;17387;42.690;23.328;2023-07-29T10:21:02;2.30;;;1.92;;
29984;SDS011;17387;42.690;23.328;2023-07-29T10:23:32;4.85;;;2.45;;
29984;SDS011;17387;42.690;23.328;2023-07-29T10:26:05;2.53;;;1.92;;
29984;SDS011;17387;42.690;23.328;2023-07-29T10:28:31;3.70;;;2.30;;
29984;SDS011;17387;42.690;23.328;2023-07-29T10:30:57;4.55;;;2.13;;
29984;SDS011;17387;42.690;23.328;2023-07-29T10:33:22;9.32;;;7.95;;
29984;SDS011;17387;42.690;23.328;2023-07-29T10:35:48;2.03;;;1.30;;
29984;SDS011;17387;42.690;23.328;2023-07-29T10:38:13;1.13;;;1.02;;
29984;SDS011;17387;42.690;23.328;2023-07-29T10:40:55;1.20;;;1.10;;
29984;SDS011;17387;42.690;23.328;2023-07-29T10:43:34;2.03;;;1.30;;
29984;SDS011;17387;42.690;23.328;2023-07-29T10:46:17;1.63;;;1.20;;
29984;SDS011;17387;42.690;23.328;2023-07-29T10:48:43;2.30;;;1.08;;
29984;SDS011;17387;42.690;23.328;2023-07-29T10:51:30;1.88;;;1.40;;
29984;SDS011;17387;42.690;23.328;2023-07-29T10:56:32;3.25;;;1.42;;
29984;SDS011;17387;42.690;23.328;2023-07-29T11:01:43;3.25;;;1.30;;
29984;SDS011;17387;42.690;23.328;2023-07-29T11:15:28;1.13;;;0.95;;
29984;SDS011;17387;42.690;23.328;2023-07-29T11:20:23;3.10;;;2.75;;
29984;SDS011;17387;42.690;23.328;2023-07-29T11:22:49;1.98;;;1.42;;
29984;SDS011;17387;42.690;23.328;2023-07-29T11:25:15;1.42;;;1.20;;
29984;SDS011;17387;42.690;23.328;2023-07-29T11:27:40;2.30;;;2.10;;
29984;SDS011;17387;42.690;23.328;2023-07-29T11:30:07;4.72;;;1.13;;
29984;SDS011;17387;42.690;23.328;2023-07-29T11:32:33;1.88;;;1.60;;
29984;SDS011;17387;42.690;23.328;2023-07-29T11:35:02;1.70;;;1.30;;
29984;SDS011;17387;42.690;23.328;2023-07-29T11:37:28;2.03;;;1.40;;
29984;SDS011;17387;42.690;23.328;2023-07-29T11:39:53;1.83;;;1.20;;
29984;SDS011;17387;42.690;23.328;2023-07-29T11:42:18;6.40;;;1.50;;
29984;SDS011;17387;42.690;23.328;2023-07-29T11:44:45;3.95;;;1.17;;
29984;SDS011;17387;42.690;23.328;2023-07-29T11:47:10;3.42;;;2.17;;
29984;SDS011;17387;42.690;23.328;2023-07-29T11:49:37;5.05;;;1.52;;
29984;SDS011;17387;42.690;23.328;2023-07-29T11:52:03;4.07;;;1.50;;
29984;SDS011;17387;42.690;23.328;2023-07-29T11:54:28;4.57;;;2.20;;
29984;SDS011;17387;42.690;23.328;2023-07-29T11:56:54;1.95;;;1.73;;
29984;SDS011;17387;42.690;23.328;2023-07-29T11:59:20;3.10;;;1.73;;
29984;SDS011;17387;42.690;23.328;2023-07-29T12:01:45;12.77;;;7.20;;
29984;SDS011;17387;42.690;23.328;2023-07-29T12:04:11;1.75;;;1.55;;
29984;SDS011;17387;42.690;23.328;2023-07-29T12:06:37;5.43;;;1.35;;
29984;SDS011;17387;42.690;23.328;2023-07-29T12:09:02;3.80;;;2.28;;
29984;SDS011;17387;42.690;23.328;2023-07-29T12:11:28;3.63;;;1.58;;
29984;SDS011;17387;42.690;23.328;2023-07-29T12:13:53;2.38;;;1.85;;
29984;SDS011;17387;42.690;23.328;2023-07-29T12:16:19;3.65;;;1.60;;
29984;SDS011;17387;42.690;23.328;2023-07-29T12:18:44;2.22;;;1.60;;
29984;SDS011;17387;42.690;23.328;2023-07-29T12:21:10;1.67;;;1.42;;
29984;SDS011;17387;42.690;23.328;2023-07-29T12:23:35;4.32;;;2.20;;
29984;SDS011;17387;42.690;23.328;2023-07-29T12:26:00;2.22;;;1.42;;
29984;SDS011;17387;42.690;23.328;2023-07-29T12:28:26;2.70;;;1.70;;
29984;SDS011;17387;42.690;23.328;2023-07-29T12:30:54;2.60;;;1.83;;
29984;SDS011;17387;42.690;23.328;2023-07-29T12:33:33;1.83;;;1.52;;
29984;SDS011;17387;42.690;23.328;2023-07-29T12:35:59;1.95;;;1.65;;
29984;SDS011;17387;42.690;23.328;2023-07-29T12:38:27;3.10;;;1.80;;
29984;SDS011;17387;42.690;23.328;2023-07-29T12:40:53;3.45;;;1.67;;
29984;SDS011;17387;42.690;23.328;2023-07-29T12:43:18;1.63;;;1.53;;
29984;SDS011;17387;42.690;23.328;2023-07-29T12:45:43;3.07;;;1.80;;
29984;SDS011;17387;42.690;23.328;2023-07-29T12:48:09;2.17;;;1.70;;
29984;SDS011;17387;42.690;23.328;2023-07-29T12:50:34;2.08;;;1.80;;
29984;SDS011;17387;42.690;23.328;2023-07-29T12:52:59;1.50;;;1.40;;
29984;SDS011;17387;42.690;23.328;2023-07-29T12:55:25;2.03;;;1.90;;
29984;SDS011;17387;42.690;23.328;2023-07-29T12:57:50;2.80;;;1.73;;
29984;SDS011;17387;42.690;23.328;2023-07-29T13:00:16;3.33;;;1.88;;
29984;SDS011;17387;42.690;23.328;2023-07-29T13:02:41;3.57;;;2.60;;
29984;SDS011;17387;42.690;23.328;2023-07-29T13:05:08;2.23;;;1.87;;
29984;SDS011;17387;42.690;23.328;2023-07-29T13:07:34;3.88;;;2.17;;
29984;SDS011;17387;42.690;23.328;2023-07-29T13:09:59;2.10;;;1.90;;
29984;SDS011;17387;42.690;23.328;2023-07-29T13:12:25;2.13;;;1.92;;
29984;SDS011;17387;42.690;23.328;2023-07-29T13:14:50;2.10;;;1.90;;
29984;SDS011;17387;42.690;23.328;2023-07-29T13:17:15;1.87;;;1.77;;
29984;SDS011;17387;42.690;23.328;2023-07-29T13:19:40;1.63;;;1.37;;
29984;SDS011;17387;42.690;23.328;2023-07-29T13:22:08;1.50;;;1.40;;
29984;SDS011;17387;42.690;23.328;2023-07-29T13:24:33;3.20;;;1.60;;
29984;SDS011;17387;42.690;23.328;2023-07-29T13:26:58;3.17;;;1.40;;
29984;SDS011;17387;42.690;23.328;2023-07-29T13:29:24;2.07;;;1.63;;
29984;SDS011;17387;42.690;23.328;2023-07-29T13:31:49;2.83;;;1.60;;
29984;SDS011;17387;42.690;23.328;2023-07-29T13:34:14;2.57;;;2.00;;
29984;SDS011;17387;42.690;23.328;2023-07-29T13:36:39;2.60;;;1.90;;
29984;SDS011;17387;42.690;23.328;2023-07-29T13:39:05;1.60;;;1.50;;
29984;SDS011;17387;42.690;23.328;2023-07-29T13:41:32;3.13;;;1.50;;
29984;SDS011;17387;42.690;23.328;2023-07-29T13:43:57;1.40;;;1.30;;
29984;SDS011;17387;42.690;23.328;2023-07-29T13:46:23;1.83;;;1.73;;
29984;SDS011;17387;42.690;23.328;2023-07-29T13:48:48;2.00;;;1.80;;
29984;SDS011;17387;42.690;23.328;2023-07-29T13:51:14;7.45;;;2.03;;
29984;SDS011;17387;42.690;23.328;2023-07-29T13:53:39;2.87;;;1.80;;
29984;SDS011;17387;42.690;23.328;2023-07-29T13:56:05;2.85;;;1.50;;
29984;SDS011;17387;42.690;23.328;2023-07-29T13:58:30;1.87;;;1.50;;
29984;SDS011;17387;42.690;23.328;2023-07-29T14:00:55;3.73;;;2.10;;
29984;SDS011;17387;42.690;23.328;2023-07-29T14:03:23;3.87;;;1.90;;
29984;SDS011;17387;42.690;23.328;2023-07-29T14:05:49;2.50;;;1.70;;
29984;SDS011;17387;42.690;23.328;2023-07-29T14:08:14;2.73;;;1.73;;
29984;SDS011;17387;42.690;23.328;2023-07-29T14:10:39;1.90;;;1.63;;
29984;SDS011;17387;42.690;23.328;2023-07-29T14:13:05;5.00;;;1.77;;
29984;SDS011;17387;42.690;23.328;2023-07-29T14:15:30;1.55;;;1.45;;
29984;SDS011;17387;42.690;23.328;2023-07-29T14:17:57;1.73;;;1.60;;
29984;SDS011;17387;42.690;23.328;2023-07-29T14:20:25;2.08;;;1.58;;
29984;SDS011;17387;42.690;23.328;2023-07-29T14:22:50;4.32;;;3.75;;
29984;SDS011;17387;42.690;23.328;2023-07-29T14:25:15;4.63;;;2.28;;
29984;SDS011;17387;42.690;23.328;2023-07-29T14:27:41;2.53;;;2.03;;
29984;SDS011;17387;42.690;23.328;2023-07-29T14:30:06;4.43;;;1.70;;
29984;SDS011;17387;42.690;23.328;2023-07-29T14:32:32;3.03;;;1.60;;
29984;SDS011;17387;42.690;23.328;2023-07-29T14:34:57;3.63;;;1.63;;
29984;SDS011;17387;42.690;23.328;2023-07-29T14:37:22;1.73;;;1.63;;
29984;SDS011;17387;42.690;23.328;2023-07-29T14:39:48;2.20;;;2.00;;
29984;SDS011;17387;42.690;23.328;2023-07-29T14:42:13;3.73;;;1.70;;
29984;SDS011;17387;42.690;23.328;2023-07-29T14:44:40;3.10;;;1.90;;
29984;SDS011;17387;42.690;23.328;2023-07-29T14:47:05;3.20;;;1.92;;